Time;durP1;ratioP1;P1;durP2;ratioP2;P2;SDS_P1;SDS_P2;PMS_P1;PMS_P2;Temp;Humidity;BMP_temperature;BMP_pressure;BME280_temperature;BME280_humidity;BME280_pressure;Samples;Min_cycle;Max_cycle;Signal;HPM_P1;HPM_P2
2021/12/14 00:01:34;;;;;;;25.75;14.73;;;11.20;99.90;;;;;;4939950;28;20090;-64
2021/12/14 00:04:17;;;;;;;26.10;14.23;;;11.20;99.90;;;;;;4935872;29;20050;-64
2021/12/14 00:06:46;;;;;;;23.35;12.95;;;11.10;99.90;;;;;;4935897;29;20114;-64
2021/12/14 00:09:22;;;;;;;24.02;14.18;;;11.10;99.90;;;;;;4935850;29;20114;-64
2021/12/14 00:12:12;;;;;;;23.42;13.43;;;11.10;99.90;;;;;;4935623;29;20055;-64
2021/12/14 00:17:09;;;;;;;24.40;13.52;;;11.10;99.90;;;;;;4935796;29;20039;-64
2021/12/14 00:19:35;;;;;;;22.92;14.48;;;11.10;99.90;;;;;;4936437;29;20053;-64
2021/12/14 00:22:06;;;;;;;24.92;14.70;;;11.10;99.90;;;;;;4935364;29;20039;-65
2021/12/14 00:24:34;;;;;;;24.80;14.00;;;11.10;99.90;;;;;;4935571;29;20023;-64
2021/12/14 00:27:05;;;;;;;21.98;13.55;;;11.10;99.90;;;;;;4935647;29;20024;-64
2021/12/14 00:29:36;;;;;;;22.75;13.48;;;11.10;99.90;;;;;;4935579;29;20114;-65
2021/12/14 00:32:07;;;;;;;24.10;13.13;;;11.10;99.90;;;;;;4935684;29;20383;-63
2021/12/14 00:34:41;;;;;;;23.83;14.30;;;11.10;99.90;;;;;;4936324;29;20059;-64
2021/12/14 00:37:21;;;;;;;25.00;14.30;;;11.10;99.90;;;;;;4934895;29;20435;-64
2021/12/14 00:39:48;;;;;;;26.50;14.00;;;11.10;99.90;;;;;;4934347;29;20032;-64
2021/12/14 00:42:16;;;;;;;25.00;12.80;;;11.10;99.90;;;;;;4933762;29;20392;-64
2021/12/14 00:44:43;;;;;;;22.05;13.25;;;11.10;99.90;;;;;;4935532;28;20043;-64
2021/12/14 00:47:09;;;;;;;22.67;14.25;;;11.10;99.90;;;;;;4935301;29;20031;-65
2021/12/14 00:49:35;;;;;;;25.38;13.43;;;11.10;99.90;;;;;;4935624;29;20047;-65
2021/12/14 00:52:03;;;;;;;22.58;13.63;;;11.10;99.90;;;;;;4935147;29;20601;-65
2021/12/14 00:54:28;;;;;;;20.70;12.95;;;11.10;99.90;;;;;;4933840;29;20048;-65
2021/12/14 00:56:54;;;;;;;24.77;13.57;;;11.10;99.90;;;;;;4935208;29;20173;-64
2021/12/14 00:59:21;;;;;;;22.77;14.68;;;11.10;99.90;;;;;;4949554;28;20114;-65
2021/12/14 01:02:10;;;;;;;22.77;13.50;;;11.10;99.90;;;;;;4937913;29;20054;-65
2021/12/14 01:04:43;;;;;;;26.50;13.30;;;11.00;99.90;;;;;;4935296;28;20495;-64
2021/12/14 01:07:12;;;;;;;22.80;13.00;;;11.00;99.90;;;;;;4934613;29;20036;-65
2021/12/14 01:09:41;;;;;;;26.95;14.35;;;11.00;99.90;;;;;;4935386;29;20107;-65
2021/12/14 01:12:14;;;;;;;22.25;13.68;;;11.00;99.90;;;;;;4934294;28;20111;-65
2021/12/14 01:14:50;;;;;;;23.60;13.57;;;11.00;99.90;;;;;;4933658;29;20039;-65
2021/12/14 01:17:40;;;;;;;22.10;13.20;;;11.00;99.90;;;;;;4916610;29;20476;-65
2021/12/14 01:20:12;;;;;;;24.17;13.90;;;11.10;99.90;;;;;;4920073;29;20038;-65
2021/12/14 01:22:43;;;;;;;25.13;14.18;;;11.00;99.90;;;;;;4935313;29;20067;-65
2021/12/14 01:25:22;;;;;;;29.15;14.35;;;11.00;99.90;;;;;;4933898;29;20195;-65
2021/12/14 01:28:00;;;;;;;24.48;13.48;;;11.00;99.90;;;;;;4934323;29;20044;-65
2021/12/14 01:30:32;;;;;;;21.33;13.48;;;11.00;99.90;;;;;;4934757;29;20040;-65
2021/12/14 01:33:05;;;;;;;24.20;13.35;;;11.00;99.90;;;;;;4934552;29;20031;-65
2021/12/14 01:35:36;;;;;;;20.90;13.02;;;11.00;99.90;;;;;;4934170;29;20383;-65
2021/12/14 01:38:17;;;;;;;24.20;13.68;;;11.00;99.90;;;;;;4935791;29;20382;-65
2021/12/14 01:40:53;;;;;;;24.27;14.48;;;11.00;99.90;;;;;;4924084;29;20039;-65
2021/12/14 01:43:21;;;;;;;21.23;12.57;;;10.90;99.90;;;;;;4948779;29;20059;-65
2021/12/14 01:45:48;;;;;;;26.65;14.80;;;11.00;99.90;;;;;;4934459;29;20031;-65
2021/12/14 01:48:13;;;;;;;23.95;13.32;;;11.00;99.90;;;;;;4933941;29;20103;-65
2021/12/14 01:50:47;;;;;;;24.17;12.68;;;10.90;99.90;;;;;;4935523;29;20027;-65
2021/12/14 01:53:14;;;;;;;25.20;14.48;;;10.90;99.90;;;;;;4933440;29;20102;-65
2021/12/14 01:55:43;;;;;;;25.23;13.75;;;11.00;99.90;;;;;;4938220;29;20038;-65
2021/12/14 01:58:11;;;;;;;24.75;14.30;;;10.90;99.90;;;;;;4948710;29;20055;-65
2021/12/14 02:00:46;;;;;;;24.88;13.25;;;10.90;99.90;;;;;;4951153;29;20073;-64
2021/12/14 02:03:14;;;;;;;22.75;14.27;;;10.90;99.90;;;;;;4947400;29;20020;-64
2021/12/14 02:05:48;;;;;;;21.45;13.00;;;11.00;99.90;;;;;;4948819;29;20043;-63
2021/12/14 02:08:21;;;;;;;20.17;12.63;;;10.90;99.90;;;;;;4947247;29;20027;-64
2021/12/14 02:10:51;;;;;;;22.02;13.43;;;10.90;99.90;;;;;;4946031;29;20109;-63
2021/12/14 02:13:35;;;;;;;24.15;13.13;;;10.90;99.90;;;;;;4942024;29;20024;-65
2021/12/14 02:16:06;;;;;;;22.63;13.25;;;10.90;99.90;;;;;;4935353;29;20427;-64
2021/12/14 02:18:32;;;;;;;22.48;13.02;;;10.90;99.90;;;;;;4934241;29;20424;-64
2021/12/14 02:21:08;;;;;;;22.65;12.90;;;10.90;99.90;;;;;;4934461;29;20043;-65
2021/12/14 02:23:38;;;;;;;21.50;12.43;;;10.80;99.90;;;;;;4934036;29;20034;-64
2021/12/14 02:26:10;;;;;;;20.77;12.50;;;10.80;99.90;;;;;;4934443;29;20099;-64
2021/12/14 02:28:37;;;;;;;22.05;13.20;;;10.80;99.90;;;;;;4933946;29;20036;-64
2021/12/14 02:31:11;;;;;;;23.08;12.85;;;10.80;99.90;;;;;;4935253;29;20119;-65
2021/12/14 02:33:41;;;;;;;21.77;12.02;;;10.80;99.90;;;;;;4933780;29;20123;-64
2021/12/14 02:36:11;;;;;;;19.55;12.35;;;10.80;99.90;;;;;;4934417;29;20032;-64
2021/12/14 02:38:41;;;;;;;22.88;13.52;;;10.80;99.90;;;;;;4932935;29;20514;-64
2021/12/14 02:41:08;;;;;;;17.48;11.43;;;10.80;99.90;;;;;;4933122;29;20039;-64
2021/12/14 02:43:44;;;;;;;24.60;13.30;;;10.80;99.90;;;;;;4932567;29;20112;-63
2021/12/14 02:46:33;;;;;;;21.10;11.85;;;10.80;99.90;;;;;;4934069;29;20062;-63
2021/12/14 02:49:02;;;;;;;20.27;11.98;;;10.80;99.90;;;;;;4934265;29;20036;-63
2021/12/14 02:51:32;;;;;;;20.15;11.35;;;10.80;99.90;;;;;;4933328;29;20052;-64
2021/12/14 02:54:08;;;;;;;20.05;11.40;;;10.80;99.90;;;;;;4933008;29;20048;-63
2021/12/14 02:56:36;;;;;;;22.42;11.82;;;10.80;99.90;;;;;;4933183;29;20088;-64
2021/12/14 02:59:14;;;;;;;18.92;12.00;;;10.80;99.90;;;;;;4915418;29;20067;-64
2021/12/14 03:01:42;;;;;;;16.60;10.95;;;10.80;99.90;;;;;;4916232;29;20048;-64
2021/12/14 03:04:09;;;;;;;21.17;11.18;;;10.80;99.90;;;;;;4933614;28;20032;-64
2021/12/14 03:06:45;;;;;;;17.70;10.82;;;10.80;99.90;;;;;;4933250;29;20047;-64
2021/12/14 03:09:19;;;;;;;17.42;11.02;;;10.80;99.90;;;;;;4933177;29;20035;-63
2021/12/14 03:11:44;;;;;;;18.25;10.90;;;10.80;99.90;;;;;;4933316;29;20123;-64
2021/12/14 03:14:10;;;;;;;18.63;10.90;;;10.80;99.90;;;;;;4932325;29;20122;-63
2021/12/14 03:16:38;;;;;;;17.83;10.45;;;10.80;99.90;;;;;;4932053;29;20040;-63
2021/12/14 03:19:06;;;;;;;22.10;11.75;;;10.80;99.90;;;;;;4933654;29;20036;-64
2021/12/14 03:21:39;;;;;;;15.55;10.18;;;10.80;99.90;;;;;;4932590;29;20039;-65
2021/12/14 03:24:14;;;;;;;16.48;10.15;;;10.80;99.90;;;;;;4932698;29;20027;-64
2021/12/14 03:26:44;;;;;;;18.05;9.50;;;10.80;99.90;;;;;;4935122;29;20364;-64
2021/12/14 03:29:16;;;;;;;16.58;10.10;;;10.80;99.90;;;;;;4937187;29;20091;-64
2021/12/14 03:31:45;;;;;;;13.05;8.85;;;10.80;99.90;;;;;;4936020;29;20062;-65
2021/12/14 03:34:24;;;;;;;16.90;10.50;;;10.70;99.90;;;;;;4937183;29;20039;-64
2021/12/14 03:37:00;;;;;;;17.55;10.23;;;10.70;99.90;;;;;;4936259;29;20038;-65
2021/12/14 03:39:33;;;;;;;18.65;10.00;;;10.80;99.90;;;;;;4937366;29;20036;-65
2021/12/14 03:42:06;;;;;;;14.80;9.00;;;10.80;99.90;;;;;;4936501;29;20035;-65
2021/12/14 03:44:36;;;;;;;14.27;9.02;;;10.80;99.90;;;;;;4935829;29;20064;-65
2021/12/14 03:47:05;;;;;;;15.77;10.13;;;10.80;99.90;;;;;;4935569;29;20038;-65
2021/12/14 03:49:41;;;;;;;16.88;9.70;;;10.80;99.90;;;;;;4937176;29;20379;-64
2021/12/14 03:52:09;;;;;;;15.38;9.82;;;10.80;99.90;;;;;;4935451;29;20044;-65
2021/12/14 03:54:35;;;;;;;14.70;9.25;;;10.80;99.90;;;;;;4936688;29;20067;-64
2021/12/14 03:57:01;;;;;;;14.90;9.50;;;10.80;99.90;;;;;;4935006;29;20059;-64
2021/12/14 03:59:29;;;;;;;14.10;9.57;;;10.80;99.90;;;;;;4936140;29;20036;-64
2021/12/14 04:01:57;;;;;;;14.32;9.77;;;10.80;99.90;;;;;;4934853;29;20044;-64
2021/12/14 04:04:34;;;;;;;15.95;9.45;;;10.80;99.90;;;;;;4937121;29;20464;-64
2021/12/14 04:07:02;;;;;;;15.40;9.45;;;10.70;99.90;;;;;;4935418;29;20032;-64
2021/12/14 04:09:31;;;;;;;16.23;10.10;;;10.70;99.90;;;;;;4935701;29;20028;-64
2021/12/14 04:11:57;;;;;;;15.15;9.30;;;10.70;99.90;;;;;;4936291;28;20032;-64
2021/12/14 04:14:23;;;;;;;16.48;9.95;;;10.70;99.90;;;;;;4935779;29;20028;-64
2021/12/14 04:16:51;;;;;;;16.08;9.65;;;10.70;99.90;;;;;;4934173;29;20089;-64
2021/12/14 04:19:21;;;;;;;16.38;10.40;;;10.80;99.90;;;;;;4936217;29;20050;-64
2021/12/14 04:21:48;;;;;;;15.52;10.10;;;10.70;99.90;;;;;;4934836;29;20044;-63
2021/12/14 04:24:20;;;;;;;18.75;10.25;;;10.70;99.90;;;;;;4936566;29;20127;-64
2021/12/14 04:26:47;;;;;;;17.00;9.77;;;10.70;99.90;;;;;;4935490;29;20042;-64
2021/12/14 04:29:13;;;;;;;16.25;10.02;;;10.70;99.90;;;;;;4950936;29;20023;-63
2021/12/14 04:31:41;;;;;;;18.13;9.65;;;10.70;99.90;;;;;;4934835;29;20032;-64
2021/12/14 04:34:11;;;;;;;15.43;9.70;;;10.60;99.90;;;;;;4936431;29;20031;-64
2021/12/14 04:36:40;;;;;;;16.08;9.52;;;10.70;99.90;;;;;;4934375;29;20481;-64
2021/12/14 04:53:10;;;;;;;15.52;9.82;;;10.50;99.90;;;;;;4934670;29;20491;-64
2021/12/14 04:55:40;;;;;;;17.42;10.18;;;10.60;99.90;;;;;;4950480;28;20118;-64
2021/12/14 04:58:05;;;;;;;17.20;10.45;;;10.50;99.90;;;;;;4934706;29;20072;-64
2021/12/14 05:00:50;;;;;;;18.80;10.05;;;10.50;99.90;;;;;;4937318;29;20054;-64
2021/12/14 05:03:23;;;;;;;16.88;10.20;;;10.60;99.90;;;;;;4935062;29;20039;-64
2021/12/14 05:06:00;;;;;;;18.60;10.27;;;10.60;99.90;;;;;;4949436;29;20039;-64
2021/12/14 05:11:03;;;;;;;17.05;10.55;;;10.60;99.90;;;;;;4935497;29;20036;-63
2021/12/14 05:13:36;;;;;;;16.90;9.88;;;10.60;99.90;;;;;;4934456;29;20038;-64
2021/12/14 05:16:05;;;;;;;17.52;10.30;;;10.60;99.90;;;;;;4935230;29;20106;-63
2021/12/14 05:18:31;;;;;;;17.02;9.98;;;10.60;99.90;;;;;;4935066;29;20085;-63
2021/12/14 05:20:58;;;;;;;16.35;9.07;;;10.60;99.90;;;;;;4943602;28;20075;-63
2021/12/14 05:23:28;;;;;;;17.88;10.10;;;10.60;99.80;;;;;;4935042;29;20499;-63
2021/12/14 05:25:55;;;;;;;15.90;9.70;;;10.60;99.80;;;;;;4935479;29;20476;-63
2021/12/14 05:28:27;;;;;;;15.20;9.43;;;10.60;99.70;;;;;;4935185;29;20038;-64
2021/12/14 05:30:57;;;;;;;14.68;9.13;;;10.60;99.70;;;;;;4934824;29;20035;-64
2021/12/14 05:33:26;;;;;;;17.50;9.98;;;10.60;99.70;;;;;;4934976;29;20032;-64
2021/12/14 05:35:54;;;;;;;18.70;10.23;;;10.60;99.60;;;;;;4934726;29;20118;-64
2021/12/14 05:38:27;;;;;;;15.07;9.02;;;10.60;99.60;;;;;;4934450;29;20038;-64
2021/12/14 05:43:28;;;;;;;21.30;9.93;;;10.60;99.50;;;;;;4934377;29;20115;-64
2021/12/14 05:45:57;;;;;;;16.75;9.95;;;10.70;99.50;;;;;;4934355;28;20031;-64
2021/12/14 05:48:29;;;;;;;16.65;9.52;;;10.70;99.50;;;;;;4933497;29;20567;-64
2021/12/14 05:51:03;;;;;;;17.30;10.70;;;10.70;99.40;;;;;;4934682;29;20049;-64
2021/12/14 05:53:41;;;;;;;16.05;9.70;;;10.60;99.40;;;;;;4933556;29;20554;-64
2021/12/14 05:56:14;;;;;;;14.30;9.15;;;10.70;99.50;;;;;;4934913;29;20050;-64
2021/12/14 05:58:40;;;;;;;17.05;9.30;;;10.60;99.40;;;;;;4934183;29;20042;-64
2021/12/14 06:01:09;;;;;;;17.48;9.52;;;10.60;99.40;;;;;;4935254;29;20467;-63
2021/12/14 06:03:41;;;;;;;14.38;8.85;;;10.60;99.40;;;;;;4940023;29;20040;-64
2021/12/14 06:06:15;;;;;;;17.20;9.35;;;10.70;99.40;;;;;;4934860;29;20102;-63
2021/12/14 06:08:40;;;;;;;15.75;9.10;;;10.70;99.40;;;;;;4933923;29;20105;-64
2021/12/14 06:11:22;;;;;;;14.90;9.38;;;10.70;99.40;;;;;;4934864;29;20517;-64
2021/12/14 06:13:47;;;;;;;17.30;9.35;;;10.60;99.30;;;;;;4932495;29;20439;-64
2021/12/14 06:16:29;;;;;;;18.15;9.77;;;10.60;99.40;;;;;;4935255;29;20031;-65
2021/12/14 06:19:16;;;;;;;16.50;9.70;;;10.60;99.40;;;;;;4934018;29;20027;-64
2021/12/14 06:21:42;;;;;;;15.98;8.98;;;10.60;99.40;;;;;;4932756;29;20443;-64
2021/12/14 06:24:10;;;;;;;16.30;9.13;;;10.60;99.30;;;;;;4935073;29;20118;-64
2021/12/14 06:26:43;;;;;;;16.00;9.20;;;10.60;99.30;;;;;;4932795;29;20032;-64
2021/12/14 06:29:23;;;;;;;15.13;9.13;;;10.60;99.30;;;;;;4934085;29;20119;-65
2021/12/14 06:31:50;;;;;;;16.27;8.57;;;10.60;99.20;;;;;;4933159;29;20469;-65
2021/12/14 06:34:21;;;;;;;17.02;9.20;;;10.60;99.20;;;;;;4934563;29;20032;-65
2021/12/14 06:37:03;;;;;;;14.95;9.07;;;10.60;99.20;;;;;;4933743;29;20035;-65
2021/12/14 06:40:18;;;;;;;15.27;9.25;;;10.60;99.20;;;;;;4934069;29;20054;-68
2021/12/14 06:42:47;;;;;;;15.93;9.35;;;10.60;99.30;;;;;;4933189;29;20432;-64
2021/12/14 06:45:21;;;;;;;15.70;8.85;;;10.50;99.20;;;;;;4948109;28;20519;-65
2021/12/14 06:47:50;;;;;;;17.70;9.68;;;10.60;99.30;;;;;;4932880;29;20423;-65
2021/12/14 06:50:21;;;;;;;16.30;10.05;;;10.60;99.30;;;;;;4934660;29;20071;-65
2021/12/14 06:53:06;;;;;;;16.10;9.82;;;10.60;99.20;;;;;;4930979;29;20056;-65
2021/12/14 06:55:33;;;;;;;18.58;9.85;;;10.60;99.20;;;;;;4934229;29;20685;-65
2021/12/14 06:58:08;;;;;;;17.02;9.70;;;10.50;99.20;;;;;;4932495;29;20110;-65
2021/12/14 07:00:35;;;;;;;17.55;10.70;;;10.50;99.20;;;;;;4934815;29;20568;-64
2021/12/14 07:03:00;;;;;;;17.00;8.82;;;10.50;99.20;;;;;;4937501;29;20047;-65
2021/12/14 07:05:28;;;;;;;17.02;9.38;;;10.50;99.30;;;;;;4936434;29;20035;-64
2021/12/14 07:07:53;;;;;;;16.45;10.48;;;10.50;99.30;;;;;;4940084;29;20502;-66
2021/12/14 07:10:19;;;;;;;14.85;9.02;;;10.50;99.30;;;;;;4951441;29;20123;-66
2021/12/14 07:12:48;;;;;;;14.32;8.88;;;10.50;99.30;;;;;;4933173;29;20023;-67
2021/12/14 07:15:25;;;;;;;17.60;9.45;;;10.50;99.50;;;;;;4940440;29;20530;-67
2021/12/14 07:18:03;;;;;;;17.05;8.65;;;10.50;99.30;;;;;;4935474;29;20387;-67
2021/12/14 07:20:31;;;;;;;17.42;10.07;;;10.50;99.30;;;;;;4946100;28;20540;-67
2021/12/14 07:23:04;;;;;;;16.02;10.57;;;10.50;99.30;;;;;;4935940;29;20035;-68
2021/12/14 07:25:38;;;;;;;15.77;9.43;;;10.50;99.30;;;;;;4946157;29;20495;-66
2021/12/14 07:28:12;;;;;;;13.95;8.77;;;10.50;99.30;;;;;;4947578;29;20043;-66
2021/12/14 07:30:42;;;;;;;14.65;8.45;;;10.50;99.30;;;;;;4935978;29;20035;-66
2021/12/14 07:33:24;;;;;;;13.43;8.50;;;10.50;99.30;;;;;;4944851;29;20111;-66
2021/12/14 07:36:01;;;;;;;16.23;9.30;;;10.60;99.30;;;;;;4935623;29;20036;-65
2021/12/14 07:38:41;;;;;;;16.02;8.23;;;10.60;99.20;;;;;;4933524;29;20050;-65
2021/12/14 07:41:21;;;;;;;13.45;8.30;;;10.60;99.20;;;;;;4935875;29;20131;-65
2021/12/14 07:44:05;;;;;;;13.40;8.38;;;10.60;99.10;;;;;;4934697;29;20032;-65
2021/12/14 07:46:41;;;;;;;16.77;8.82;;;10.60;99.10;;;;;;4934033;29;20035;-65
2021/12/14 07:49:29;;;;;;;15.77;8.00;;;10.60;99.10;;;;;;4933917;29;20123;-65
2021/12/14 07:51:57;;;;;;;16.45;9.55;;;10.60;99.10;;;;;;4934271;29;20059;-65
2021/12/14 07:54:55;;;;;;;11.80;7.97;;;10.60;99.00;;;;;;4935550;29;20498;-65
2021/12/14 07:57:29;;;;;;;14.02;8.63;;;10.60;99.00;;;;;;4926727;29;20131;-65
2021/12/14 08:00:09;;;;;;;13.57;8.88;;;10.60;99.00;;;;;;4934920;29;20067;-65
2021/12/14 08:02:39;;;;;;;14.18;8.60;;;10.60;99.00;;;;;;4934715;29;20482;-65
2021/12/14 08:05:23;;;;;;;13.88;8.52;;;10.60;99.00;;;;;;4931991;29;20063;-65
2021/12/14 08:08:19;;;;;;;19.10;9.37;;;10.60;99.00;;;;;;4928372;29;20130;-65
2021/12/14 08:11:08;;;;;;;16.52;9.02;;;10.60;99.00;;;;;;4928054;29;20512;-65
2021/12/14 08:13:43;;;;;;;15.13;8.57;;;10.60;99.00;;;;;;4931536;29;20054;-65
2021/12/14 08:16:09;;;;;;;15.45;8.90;;;10.60;99.00;;;;;;4935478;29;20028;-65
2021/12/14 08:18:37;;;;;;;16.75;9.20;;;10.60;99.00;;;;;;4935064;29;20582;-65
2021/12/14 08:21:09;;;;;;;14.80;8.85;;;10.60;98.90;;;;;;4934215;29;20035;-65
2021/12/14 08:23:56;;;;;;;13.45;8.50;;;10.70;98.90;;;;;;4929029;29;20040;-65
2021/12/14 08:26:23;;;;;;;15.25;9.05;;;10.70;98.90;;;;;;4929603;29;20034;-65
2021/12/14 08:29:02;;;;;;;16.08;9.13;;;10.70;98.90;;;;;;4934039;29;20028;-65
2021/12/14 08:31:36;;;;;;;15.55;9.25;;;10.70;98.90;;;;;;4934571;29;20090;-65
2021/12/14 08:34:05;;;;;;;16.27;9.00;;;10.70;98.80;;;;;;4928594;29;20119;-65
2021/12/14 08:36:47;;;;;;;12.13;8.35;;;10.70;98.80;;;;;;4929295;29;20298;-65
2021/12/14 08:39:28;;;;;;;14.82;9.35;;;10.70;98.80;;;;;;4935119;29;20023;-64
2021/12/14 08:42:11;;;;;;;13.27;8.88;;;10.70;98.70;;;;;;4934232;29;20122;-64
2021/12/14 08:44:39;;;;;;;14.65;8.68;;;10.70;98.70;;;;;;4934750;29;20032;-66
2021/12/14 08:47:11;;;;;;;14.55;8.65;;;10.80;98.70;;;;;;4930920;29;20067;-65
2021/12/14 08:49:38;;;;;;;14.48;8.43;;;10.80;98.70;;;;;;4926070;29;20020;-66
2021/12/14 08:52:09;;;;;;;14.18;8.45;;;10.70;98.70;;;;;;4926067;29;20043;-65
2021/12/14 08:54:36;;;;;;;14.60;9.35;;;10.70;98.60;;;;;;4931091;29;20111;-65
2021/12/14 08:57:13;;;;;;;15.05;9.70;;;10.70;98.60;;;;;;4931551;29;20519;-65
2021/12/14 08:59:42;;;;;;;16.67;9.52;;;10.80;98.60;;;;;;4933069;29;20040;-65
2021/12/14 09:02:12;;;;;;;14.85;9.20;;;10.70;98.60;;;;;;4932787;29;20511;-65
2021/12/14 09:04:43;;;;;;;14.82;9.20;;;10.80;98.60;;;;;;4925690;29;20031;-65
2021/12/14 09:07:13;;;;;;;13.90;9.00;;;10.70;98.60;;;;;;4931258;29;20042;-65
2021/12/14 09:09:40;;;;;;;13.32;8.90;;;10.70;98.60;;;;;;4932714;29;20391;-65
2021/12/14 09:12:12;;;;;;;16.65;9.07;;;10.70;98.60;;;;;;4933205;29;20114;-66
2021/12/14 09:14:38;;;;;;;15.68;9.00;;;10.70;98.60;;;;;;4932158;29;20028;-65
2021/12/14 09:17:06;;;;;;;16.50;10.02;;;10.80;98.70;;;;;;4930928;29;20036;-66
2021/12/14 09:19:44;;;;;;;15.27;9.80;;;10.80;98.70;;;;;;4928450;29;20071;-65
2021/12/14 09:22:35;;;;;;;14.02;8.65;;;10.80;98.70;;;;;;4926820;29;20044;-66
2021/12/14 09:25:03;;;;;;;12.80;8.40;;;10.80;98.70;;;;;;4932079;29;20032;-65
2021/12/14 09:27:33;;;;;;;15.30;9.25;;;10.80;98.60;;;;;;4933835;29;20127;-65
2021/12/14 09:29:59;;;;;;;14.95;9.45;;;10.90;98.60;;;;;;4933861;29;20015;-65
2021/12/14 09:32:28;;;;;;;13.90;8.55;;;10.90;98.50;;;;;;4933362;29;20035;-64
2021/12/14 09:34:57;;;;;;;14.07;9.20;;;10.90;98.50;;;;;;4933772;29;20039;-66
2021/12/14 09:37:26;;;;;;;14.88;9.77;;;10.90;98.50;;;;;;4933609;29;20150;-65
2021/12/14 09:39:56;;;;;;;14.13;8.63;;;10.90;98.50;;;;;;4928098;29;20058;-65
2021/12/14 09:42:26;;;;;;;12.93;9.23;;;10.90;98.50;;;;;;4931260;29;20365;-65
2021/12/14 09:44:55;;;;;;;16.73;9.75;;;10.90;98.40;;;;;;4932930;29;20023;-66
2021/12/14 09:47:25;;;;;;;13.82;9.02;;;11.00;98.40;;;;;;4930907;29;20039;-65
2021/12/14 09:49:51;;;;;;;12.57;8.55;;;11.00;98.40;;;;;;4933590;29;20060;-65
2021/12/14 09:52:32;;;;;;;14.95;9.02;;;11.00;98.30;;;;;;4933285;29;20063;-65
2021/12/14 09:55:01;;;;;;;15.00;9.48;;;10.90;98.30;;;;;;4931615;29;20281;-65
2021/12/14 09:57:32;;;;;;;15.13;8.70;;;10.90;98.40;;;;;;4932210;29;20046;-66
2021/12/14 10:00:01;;;;;;;13.95;8.63;;;10.90;98.40;;;;;;4933146;29;20050;-65
2021/12/14 10:02:32;;;;;;;12.43;7.82;;;10.90;98.40;;;;;;4933843;29;20213;-65
2021/12/14 10:05:03;;;;;;;13.05;7.93;;;10.90;98.30;;;;;;4933522;29;20071;-64
2021/12/14 10:07:29;;;;;;;14.50;9.73;;;11.00;98.30;;;;;;4935590;29;20035;-65
2021/12/14 10:09:59;;;;;;;12.35;8.45;;;11.00;98.20;;;;;;4931689;29;20145;-64
2021/12/14 10:15:14;;;;;;;15.40;9.40;;;11.00;98.10;;;;;;4939302;29;20369;-65
2021/12/14 10:17:42;;;;;;;12.68;8.35;;;11.00;98.10;;;;;;4932598;29;20032;-65
2021/12/14 10:20:16;;;;;;;12.73;8.18;;;11.00;98.10;;;;;;4933345;29;20032;-65
2021/12/14 10:22:42;;;;;;;15.15;9.00;;;11.00;98.10;;;;;;4931978;29;20506;-65
2021/12/14 10:25:11;;;;;;;14.63;9.40;;;11.00;98.10;;;;;;4928275;29;20056;-65
2021/12/14 10:27:38;;;;;;;15.95;8.93;;;11.00;98.00;;;;;;4928230;29;20107;-64
2021/12/14 10:30:12;;;;;;;16.95;9.63;;;11.00;98.00;;;;;;4928317;29;20031;-64
2021/12/14 10:32:39;;;;;;;15.55;9.32;;;11.00;98.00;;;;;;4927996;29;20030;-63
2021/12/14 10:35:14;;;;;;;11.95;8.88;;;11.00;98.10;;;;;;4932052;29;20032;-64
2021/12/14 10:37:53;;;;;;;14.32;9.27;;;11.00;98.10;;;;;;4932167;29;20031;-64
2021/12/14 10:43:16;;;;;;;15.93;9.75;;;11.00;98.00;;;;;;4928004;29;20027;-64
2021/12/14 10:45:53;;;;;;;15.50;9.80;;;11.10;98.00;;;;;;4931522;29;20036;-64
2021/12/14 10:48:22;;;;;;;16.42;10.02;;;11.10;98.00;;;;;;4934125;29;20049;-64
2021/12/14 10:50:51;;;;;;;14.57;9.57;;;11.10;97.90;;;;;;4929536;29;20123;-64
2021/12/14 10:53:19;;;;;;;13.32;9.20;;;11.10;97.90;;;;;;4930196;29;20106;-64
2021/12/14 10:55:57;;;;;;;14.80;9.00;;;11.10;97.90;;;;;;4936936;29;20035;-64
2021/12/14 10:58:26;;;;;;;13.25;9.07;;;11.20;97.90;;;;;;4930954;29;20016;-64
2021/12/14 11:00:57;;;;;;;15.25;9.32;;;11.20;97.80;;;;;;4932081;29;20044;-64
2021/12/14 11:03:29;;;;;;;13.43;9.10;;;11.20;97.70;;;;;;4934824;29;20035;-65
2021/12/14 11:05:59;;;;;;;13.27;9.20;;;11.30;97.70;;;;;;4932552;29;20036;-65
2021/12/14 11:08:39;;;;;;;13.23;8.68;;;11.30;97.60;;;;;;4930277;29;20210;-64
2021/12/14 11:11:18;;;;;;;14.10;9.75;;;11.40;97.60;;;;;;4932769;29;20031;-65
2021/12/14 11:13:52;;;;;;;13.15;8.60;;;11.40;97.50;;;;;;4933632;29;20379;-64
2021/12/14 11:16:34;;;;;;;13.05;9.05;;;11.40;97.40;;;;;;4937985;29;20748;-64
2021/12/14 11:19:06;;;;;;;13.20;10.52;;;11.40;97.30;;;;;;4930437;29;20038;-64
2021/12/14 11:21:32;;;;;;;18.02;10.48;;;11.40;97.20;;;;;;4929922;29;20096;-64
2021/12/14 11:23:58;;;;;;;13.40;9.25;;;11.50;97.20;;;;;;4930540;29;20028;-64
2021/12/14 11:26:27;;;;;;;17.42;9.43;;;11.50;97.20;;;;;;4930196;29;20038;-64
2021/12/14 11:28:59;;;;;;;15.30;9.73;;;11.50;97.10;;;;;;4932346;29;20027;-64
2021/12/14 11:31:28;;;;;;;15.52;10.00;;;11.50;97.10;;;;;;4949381;29;20035;-65
2021/12/14 11:34:02;;;;;;;16.38;9.77;;;11.50;97.10;;;;;;4933211;28;20032;-63
2021/12/14 11:36:43;;;;;;;15.73;9.15;;;11.50;97.00;;;;;;4930654;29;20039;-64
2021/12/14 11:39:22;;;;;;;17.33;9.15;;;11.50;97.00;;;;;;4931191;29;20495;-65
2021/12/14 11:41:59;;;;;;;13.50;9.55;;;11.50;97.00;;;;;;4928473;29;20048;-65
2021/12/14 11:44:37;;;;;;;13.63;9.70;;;11.60;97.00;;;;;;4939995;29;20821;-65
2021/12/14 11:47:41;;;;;;;13.75;8.77;;;11.60;96.90;;;;;;4927321;29;20130;-65
2021/12/14 11:50:22;;;;;;;14.52;9.30;;;11.60;96.80;;;;;;4934143;29;20030;-65
2021/12/14 11:53:09;;;;;;;13.90;9.27;;;11.60;96.90;;;;;;4934190;29;20051;-65
2021/12/14 11:55:40;;;;;;;14.45;9.07;;;11.60;96.80;;;;;;4932507;29;20023;-65
2021/12/14 11:58:33;;;;;;;13.10;8.80;;;11.60;96.70;;;;;;4931872;29;20083;-65
2021/12/14 12:01:46;;;;;;;13.65;8.68;;;11.70;96.60;;;;;;4932562;28;20055;-66
2021/12/14 12:04:22;;;;;;;14.60;8.45;;;11.70;96.60;;;;;;4932680;29;20042;-65
2021/12/14 12:09:46;;;;;;;13.38;8.65;;;11.70;96.50;;;;;;4930169;29;20019;-65
2021/12/14 12:12:20;;;;;;;14.00;9.10;;;11.80;96.40;;;;;;4935419;29;20047;-66
2021/12/14 12:15:05;;;;;;;12.75;7.70;;;11.80;96.40;;;;;;4938691;29;20031;-65
2021/12/14 12:17:43;;;;;;;13.50;9.03;;;11.80;96.40;;;;;;4934187;29;20078;-66
2021/12/14 12:20:49;;;;;;;13.50;8.57;;;11.80;96.30;;;;;;4939640;29;20771;-66
2021/12/14 12:23:24;;;;;;;13.65;8.27;;;11.80;96.20;;;;;;4929347;29;21941;-66
2021/12/14 12:25:59;;;;;;;13.98;9.30;;;11.90;96.20;;;;;;4937198;29;20467;-66
2021/12/14 12:28:39;;;;;;;14.35;8.25;;;11.90;96.10;;;;;;4933766;29;20139;-65
2021/12/14 12:31:13;;;;;;;13.57;8.75;;;11.90;96.00;;;;;;4933976;29;20523;-66
2021/12/14 12:33:45;;;;;;;14.77;8.85;;;12.00;96.00;;;;;;4928036;29;20387;-66
2021/12/14 12:36:20;;;;;;;13.63;8.45;;;12.00;95.90;;;;;;4933532;29;20579;-66
2021/12/14 12:39:00;;;;;;;11.80;8.05;;;12.00;95.80;;;;;;4932261;29;20514;-66
2021/12/14 12:41:29;;;;;;;11.85;7.95;;;12.00;95.80;;;;;;4938801;28;20499;-65
2021/12/14 12:44:00;;;;;;;14.93;8.68;;;12.00;95.70;;;;;;4934933;29;20062;-66
2021/12/14 12:46:37;;;;;;;11.73;8.27;;;12.00;95.60;;;;;;4933462;29;20538;-66
2021/12/14 12:49:08;;;;;;;17.70;9.32;;;12.00;95.70;;;;;;4932943;29;20027;-66
2021/12/14 12:52:00;;;;;;;13.35;8.02;;;12.00;95.70;;;;;;4939282;28;20554;-65
2021/12/14 12:55:11;;;;;;;12.52;9.00;;;12.00;95.60;;;;;;4936527;29;20043;-66
2021/12/14 12:57:47;;;;;;;12.52;8.13;;;12.00;95.60;;;;;;4923364;29;20503;-66
2021/12/14 13:00:29;;;;;;;12.27;8.57;;;11.90;95.50;;;;;;4933535;29;20032;-66
2021/12/14 13:03:13;;;;;;;13.07;8.05;;;11.90;95.50;;;;;;4933257;29;20543;-66
2021/12/14 13:06:00;;;;;;;10.95;7.40;;;11.90;95.50;;;;;;4925189;29;20075;-66
2021/12/14 13:08:33;;;;;;;12.75;8.18;;;11.90;95.50;;;;;;4930904;29;20042;-66
2021/12/14 13:11:12;;;;;;;12.77;8.07;;;11.90;95.50;;;;;;4932867;29;20075;-67
2021/12/14 13:13:50;;;;;;;13.20;8.15;;;11.90;95.50;;;;;;4932260;29;20038;-65
2021/12/14 13:16:31;;;;;;;13.77;8.27;;;11.90;95.50;;;;;;4932937;29;20510;-65
2021/12/14 13:19:10;;;;;;;13.82;8.23;;;11.90;95.60;;;;;;4931182;29;20087;-66
2021/12/14 13:21:38;;;;;;;13.05;8.13;;;11.90;95.50;;;;;;4930844;29;20416;-66
2021/12/14 13:24:09;;;;;;;11.68;7.75;;;11.80;95.50;;;;;;4933932;29;20499;-66
2021/12/14 13:26:40;;;;;;;13.40;8.95;;;11.80;95.50;;;;;;4932592;29;20492;-66
2021/12/14 13:29:15;;;;;;;15.57;7.97;;;11.80;95.60;;;;;;4925982;29;20501;-66
2021/12/14 13:32:00;;;;;;;11.93;7.88;;;11.80;95.60;;;;;;4931533;29;20035;-65
2021/12/14 13:34:31;;;;;;;12.75;7.95;;;11.80;95.60;;;;;;4930846;29;20495;-66